Time;durP1;ratioP1;P1;durP2;ratioP2;P2;SDS_P1;SDS_P2;PMS_P1;PMS_P2;Temp;Humidity;BMP_temperature;BMP_pressure;BME280_temperature;BME280_humidity;BME280_pressure;Samples;Min_cycle;Max_cycle;Signal;HPM_P1;HPM_P2
2022/10/24 00:00:16;;;;;;;9.20;7.00;;;13.60;99.90;;;;;;5034508;28;20426;-78
2022/10/24 00:02:43;;;;;;;9.63;8.13;;;13.60;99.90;;;;;;5034737;28;20454;-79
2022/10/24 00:05:12;;;;;;;12.00;8.47;;;13.60;99.90;;;;;;5036077;28;20804;-77
2022/10/24 00:07:41;;;;;;;16.83;7.83;;;13.60;99.90;;;;;;5036855;28;20452;-77
2022/10/24 00:10:11;;;;;;;9.90;8.17;;;13.60;99.90;;;;;;5036449;28;20425;-78
2022/10/24 00:12:38;;;;;;;12.33;8.07;;;13.60;99.90;;;;;;5038252;28;20401;-78
2022/10/24 00:15:06;;;;;;;9.17;7.70;;;13.50;99.90;;;;;;5038295;28;20444;-78
2022/10/24 00:17:33;;;;;;;9.57;7.83;;;13.50;99.90;;;;;;5038052;28;20482;-78
2022/10/24 00:19:59;;;;;;;11.13;7.47;;;13.50;99.90;;;;;;5037907;28;20508;-79
2022/10/24 00:22:27;;;;;;;11.00;8.03;;;13.50;99.90;;;;;;5037869;28;20447;-78
2022/10/24 00:24:55;;;;;;;9.03;7.43;;;13.80;99.90;;;;;;5037683;28;20481;-79
2022/10/24 00:27:22;;;;;;;12.10;7.73;;;13.50;99.90;;;;;;5037871;28;20438;-78
2022/10/24 00:29:49;;;;;;;12.00;9.03;;;13.40;99.90;;;;;;5037402;28;20944;-78
2022/10/24 00:32:15;;;;;;;10.57;8.07;;;13.40;99.90;;;;;;5037988;28;20450;-79
2022/10/24 00:34:42;;;;;;;13.20;8.60;;;13.70;99.90;;;;;;5038163;28;20478;-79
2022/10/24 00:37:09;;;;;;;10.80;8.60;;;13.30;99.90;;;;;;5037702;28;20485;-79
2022/10/24 00:39:36;;;;;;;10.83;8.60;;;13.30;99.90;;;;;;5039865;28;20805;-78
2022/10/24 00:42:04;;;;;;;10.00;8.63;;;13.30;99.90;;;;;;5037782;28;20477;-77
2022/10/24 00:44:35;;;;;;;12.27;8.97;;;13.30;99.90;;;;;;5036564;28;20536;-77
2022/10/24 00:47:06;;;;;;;12.23;8.50;;;13.30;99.90;;;;;;5036762;28;20439;-77
2022/10/24 00:49:44;;;;;;;10.33;8.40;;;13.30;99.90;;;;;;5036714;28;20948;-77
2022/10/24 00:52:13;;;;;;;11.90;8.93;;;13.20;99.90;;;;;;5036702;28;20875;-77
2022/10/24 00:54:41;;;;;;;10.47;9.27;;;13.30;99.90;;;;;;5036454;28;20520;-77
2022/10/24 00:57:16;;;;;;;12.60;9.93;;;13.30;99.90;;;;;;5036013;28;20540;-77
2022/10/24 00:59:45;;;;;;;14.93;9.00;;;13.20;99.90;;;;;;5036309;28;20446;-77
2022/10/24 01:02:12;;;;;;;12.93;7.90;;;13.20;99.90;;;;;;5036362;28;20457;-76
2022/10/24 01:04:38;;;;;;;8.90;8.00;;;13.20;99.90;;;;;;5036238;28;20470;-77
2022/10/24 01:07:17;;;;;;;13.67;9.03;;;13.20;99.90;;;;;;5036212;28;20502;-76
2022/10/24 01:09:58;;;;;;;13.50;8.50;;;13.20;99.90;;;;;;5036458;28;20442;-77
2022/10/24 01:12:37;;;;;;;9.83;8.20;;;13.40;99.90;;;;;;5036536;28;20430;-76
2022/10/24 01:15:11;;;;;;;10.60;8.00;;;13.10;99.90;;;;;;5036131;28;20531;-76
2022/10/24 01:17:44;;;;;;;11.90;8.73;;;13.10;99.90;;;;;;5036326;28;20572;-77
2022/10/24 01:20:28;;;;;;;15.40;8.70;;;13.10;99.90;;;;;;5036609;28;20497;-78
2022/10/24 01:23:06;;;;;;;9.83;7.30;;;13.20;99.90;;;;;;5035590;28;20416;-78
2022/10/24 01:25:44;;;;;;;11.57;9.50;;;13.20;99.90;;;;;;5036677;28;20466;-78
2022/10/24 01:28:15;;;;;;;11.27;8.40;;;13.30;99.90;;;;;;5035792;28;20434;-77
2022/10/24 01:30:47;;;;;;;9.93;8.70;;;13.10;99.90;;;;;;5035663;28;20425;-77
2022/10/24 01:33:22;;;;;;;13.33;8.03;;;13.10;99.90;;;;;;5035861;28;20914;-78
2022/10/24 01:35:54;;;;;;;11.37;8.17;;;13.10;99.90;;;;;;5035641;28;20980;-78
2022/10/24 01:38:27;;;;;;;12.53;7.80;;;13.10;99.90;;;;;;5035723;28;20517;-77
2022/10/24 01:40:59;;;;;;;10.27;7.90;;;13.10;99.90;;;;;;5036239;28;20466;-78
2022/10/24 01:43:32;;;;;;;10.30;8.37;;;13.10;99.90;;;;;;5037735;28;20431;-78
2022/10/24 01:46:19;;;;;;;12.63;7.67;;;13.00;99.90;;;;;;5037028;28;20438;-78
2022/10/24 01:48:53;;;;;;;15.40;8.63;;;13.00;99.90;;;;;;5036057;28;20406;-78
2022/10/24 01:51:26;;;;;;;15.37;9.23;;;12.90;99.90;;;;;;5037161;28;20431;-78
2022/10/24 01:54:07;;;;;;;11.17;8.73;;;12.90;99.90;;;;;;5036053;28;20450;-77
2022/10/24 01:56:40;;;;;;;8.83;7.97;;;;;;;;;;5034078;28;20489;-77
2022/10/24 01:59:39;;;;;;;8.87;7.97;;;12.90;99.90;;;;;;5035042;28;20450;-77
2022/10/24 02:02:15;;;;;;;13.30;8.00;;;12.80;99.90;;;;;;5034821;28;20426;-77
2022/10/24 02:04:54;;;;;;;9.47;8.50;;;12.80;99.90;;;;;;5035014;28;20498;-77
2022/10/24 02:07:29;;;;;;;16.10;9.20;;;12.80;99.90;;;;;;5034164;28;20421;-77
2022/10/24 02:10:03;;;;;;;12.60;8.33;;;12.80;99.90;;;;;;5034800;28;20434;-77
2022/10/24 02:12:30;;;;;;;14.73;9.57;;;;;;;;;;5035029;28;20525;-78
2022/10/24 02:15:02;;;;;;;12.43;8.10;;;12.70;99.90;;;;;;5034892;28;20792;-77
2022/10/24 02:17:31;;;;;;;9.67;7.90;;;;;;;;;;5034306;28;20489;-77
2022/10/24 02:19:58;;;;;;;11.37;8.57;;;12.70;99.90;;;;;;5034866;28;20432;-77
2022/10/24 02:22:30;;;;;;;10.97;8.97;;;12.70;99.90;;;;;;5034751;28;20504;-77
2022/10/24 02:25:02;;;;;;;13.37;8.40;;;12.70;99.90;;;;;;5034786;28;20437;-77
2022/10/24 02:27:34;;;;;;;9.90;7.93;;;12.70;99.90;;;;;;5034830;28;20435;-77
2022/10/24 02:30:03;;;;;;;9.53;8.53;;;12.60;99.90;;;;;;5034540;28;20427;-78
2022/10/24 02:32:34;;;;;;;14.07;9.37;;;12.60;99.90;;;;;;5034475;28;20912;-77
2022/10/24 02:35:03;;;;;;;14.00;9.23;;;12.70;99.90;;;;;;5034442;28;20441;-77
2022/10/24 02:37:32;;;;;;;12.40;8.53;;;12.70;99.90;;;;;;5034468;28;20540;-78
2022/10/24 02:40:01;;;;;;;10.90;8.20;;;12.60;99.90;;;;;;5034457;28;20862;-77
2022/10/24 02:42:30;;;;;;;11.50;9.27;;;12.70;99.90;;;;;;5034398;28;20421;-78
2022/10/24 02:44:57;;;;;;;10.00;8.57;;;12.70;99.90;;;;;;5034328;28;20478;-77
2022/10/24 02:47:26;;;;;;;14.10;9.07;;;12.60;99.90;;;;;;5034257;28;20470;-77
2022/10/24 02:49:55;;;;;;;16.20;9.23;;;12.50;99.90;;;;;;5033946;28;20450;-77
2022/10/24 02:52:23;;;;;;;12.73;8.90;;;12.60;99.90;;;;;;5034349;28;20442;-77
2022/10/24 02:54:50;;;;;;;11.77;8.80;;;12.60;99.90;;;;;;5060926;22;20551;-82
2022/10/24 02:57:17;;;;;;;13.40;10.50;;;12.50;99.90;;;;;;5041793;28;20502;-81
2022/10/24 02:59:43;;;;;;;12.67;9.43;;;12.50;99.90;;;;;;5044903;28;20421;-81
2022/10/24 03:02:10;;;;;;;12.37;8.50;;;12.40;99.90;;;;;;5041293;28;20450;-80
2022/10/24 03:04:37;;;;;;;12.03;8.80;;;12.50;99.90;;;;;;5039300;28;20508;-81
2022/10/24 03:07:06;;;;;;;12.70;8.57;;;12.50;99.90;;;;;;5037760;28;20814;-81
2022/10/24 03:09:33;;;;;;;12.30;8.20;;;12.50;99.90;;;;;;5038134;28;20459;-81
2022/10/24 03:11:59;;;;;;;10.20;7.67;;;12.30;99.90;;;;;;5037278;28;20935;-80
2022/10/24 03:14:27;;;;;;;10.57;8.30;;;;;;;;;;5036932;28;20471;-82
2022/10/24 03:16:53;;;;;;;11.23;8.53;;;12.50;99.90;;;;;;5038135;28;20461;-81
2022/10/24 03:19:20;;;;;;;9.23;7.43;;;12.50;99.90;;;;;;5037596;28;20446;-82
2022/10/24 03:21:46;;;;;;;9.40;7.50;;;12.50;99.90;;;;;;5037474;28;20450;-82
2022/10/24 03:24:14;;;;;;;11.93;8.87;;;12.40;99.90;;;;;;5037009;28;20471;-82
2022/10/24 03:26:41;;;;;;;9.37;8.40;;;12.60;99.90;;;;;;5036913;28;20941;-81
2022/10/24 03:29:08;;;;;;;9.43;7.77;;;12.40;99.90;;;;;;5036588;28;20538;-81
2022/10/24 03:31:35;;;;;;;9.80;7.77;;;12.40;99.90;;;;;;5037460;28;20433;-82
2022/10/24 03:34:02;;;;;;;10.53;9.30;;;12.50;99.90;;;;;;5037219;28;20422;-82
2022/10/24 03:36:28;;;;;;;10.93;7.40;;;12.40;99.90;;;;;;5037048;28;20454;-82
2022/10/24 03:38:55;;;;;;;22.20;11.80;;;12.60;99.90;;;;;;5036036;28;20489;-80
2022/10/24 03:41:23;;;;;;;10.03;7.60;;;12.30;99.90;;;;;;5036143;28;20802;-81
2022/10/24 03:43:50;;;;;;;10.07;7.10;;;12.50;99.90;;;;;;5036666;28;20860;-81
2022/10/24 03:46:17;;;;;;;11.90;7.50;;;12.40;99.90;;;;;;5037021;28;20923;-81
2022/10/24 03:48:43;;;;;;;10.57;8.20;;;12.40;99.90;;;;;;5037465;28;20435;-80
2022/10/24 03:51:10;;;;;;;10.50;7.40;;;12.40;99.90;;;;;;5036812;28;20450;-81
2022/10/24 03:53:37;;;;;;;10.17;7.37;;;12.40;99.90;;;;;;5036923;28;20504;-81
2022/10/24 03:56:04;;;;;;;14.40;7.10;;;12.40;99.90;;;;;;5036717;28;20449;-81
2022/10/24 03:58:32;;;;;;;8.93;7.40;;;12.40;99.90;;;;;;5036547;28;20484;-81
2022/10/24 04:00:58;;;;;;;9.83;6.47;;;12.30;99.90;;;;;;5037330;28;20457;-81
2022/10/24 04:03:26;;;;;;;9.53;7.53;;;12.30;99.90;;;;;;5036738;28;20428;-82
2022/10/24 04:05:53;;;;;;;7.33;6.60;;;12.30;99.90;;;;;;5039173;28;20474;-81
2022/10/24 04:08:20;;;;;;;12.13;6.87;;;12.40;99.90;;;;;;5036262;28;20446;-82
2022/10/24 04:10:46;;;;;;;8.30;7.60;;;12.30;99.90;;;;;;5036276;28;20504;-82
2022/10/24 04:13:13;;;;;;;8.93;7.17;;;12.30;99.90;;;;;;5036403;28;20481;-81
2022/10/24 04:15:41;;;;;;;10.10;7.17;;;12.30;99.90;;;;;;5036533;28;20497;-81
2022/10/24 04:18:08;;;;;;;11.30;7.80;;;12.20;99.90;;;;;;5038236;28;20482;-80
2022/10/24 04:20:36;;;;;;;16.20;8.30;;;12.20;99.90;;;;;;5048825;28;20454;-80
2022/10/24 04:23:02;;;;;;;8.63;6.90;;;12.20;99.90;;;;;;5049510;28;20449;-80
2022/10/24 04:25:29;;;;;;;9.73;6.97;;;12.20;99.90;;;;;;5049849;28;20433;-80
2022/10/24 04:27:56;;;;;;;7.53;6.80;;;12.20;99.90;;;;;;5049275;28;20482;-80
2022/10/24 04:30:23;;;;;;;9.47;7.00;;;12.20;99.90;;;;;;5048890;28;20449;-79
2022/10/24 04:32:51;;;;;;;15.30;8.00;;;12.10;99.90;;;;;;5047435;28;20436;-80
2022/10/24 04:35:17;;;;;;;12.57;8.30;;;12.20;99.90;;;;;;5047375;28;20467;-81
2022/10/24 04:37:44;;;;;;;11.10;8.27;;;12.20;99.90;;;;;;5041316;28;20453;-82
2022/10/24 04:40:11;;;;;;;9.40;8.07;;;12.20;99.90;;;;;;5036829;28;20421;-81
2022/10/24 04:42:38;;;;;;;9.23;7.60;;;12.20;99.90;;;;;;5036575;28;20450;-81
2022/10/24 04:45:07;;;;;;;10.10;7.97;;;12.20;99.90;;;;;;5037070;28;20429;-80
2022/10/24 04:47:33;;;;;;;8.50;7.60;;;12.20;99.90;;;;;;5039317;28;20442;-82
2022/10/24 04:50:02;;;;;;;9.87;7.50;;;12.20;99.90;;;;;;5039654;28;20509;-82
2022/10/24 04:52:28;;;;;;;10.13;6.60;;;12.20;99.90;;;;;;5036135;28;20481;-82
2022/10/24 04:54:55;;;;;;;8.03;7.00;;;12.20;99.90;;;;;;5036349;28;20505;-82
2022/10/24 04:57:22;;;;;;;8.60;6.97;;;12.20;99.90;;;;;;5039701;28;20465;-82
2022/10/24 04:59:48;;;;;;;9.73;7.37;;;12.20;99.90;;;;;;5058679;28;20402;-81
2022/10/24 05:02:15;;;;;;;9.57;6.73;;;12.10;99.90;;;;;;5061349;28;20427;-80
2022/10/24 05:04:42;;;;;;;8.87;7.50;;;12.10;99.90;;;;;;5061908;28;20451;-81
2022/10/24 05:07:10;;;;;;;7.17;6.47;;;12.10;99.90;;;;;;5061687;28;20398;-79
2022/10/24 05:09:36;;;;;;;8.27;6.70;;;12.10;99.90;;;;;;5061613;28;20440;-82
2022/10/24 05:12:04;;;;;;;7.67;6.97;;;12.10;99.90;;;;;;5061309;28;20457;-82
2022/10/24 05:14:31;;;;;;;9.63;6.63;;;12.20;99.90;;;;;;5049971;28;20915;-82
2022/10/24 05:16:58;;;;;;;9.50;6.63;;;12.20;99.90;;;;;;5047201;28;21027;-82
2022/10/24 05:19:24;;;;;;;8.57;6.90;;;12.20;99.90;;;;;;5040218;28;20871;-82
2022/10/24 05:21:51;;;;;;;9.50;7.13;;;12.30;99.90;;;;;;5040470;28;20448;-81
2022/10/24 05:24:19;;;;;;;11.80;7.93;;;12.30;99.90;;;;;;5040155;28;20539;-82
2022/10/24 05:26:46;;;;;;;8.93;8.10;;;12.30;99.90;;;;;;5040387;28;20446;-82
2022/10/24 05:29:12;;;;;;;10.10;7.20;;;12.40;99.90;;;;;;5039945;28;20447;-82
2022/10/24 05:31:39;;;;;;;8.73;7.90;;;12.20;99.90;;;;;;5039925;28;20431;-82
2022/10/24 05:34:06;;;;;;;8.10;7.30;;;12.30;99.90;;;;;;5039857;28;20577;-82
2022/10/24 05:36:33;;;;;;;10.60;7.30;;;12.30;99.90;;;;;;5039753;28;20436;-82
2022/10/24 05:39:00;;;;;;;7.87;6.93;;;12.20;99.90;;;;;;5039826;28;20481;-82
2022/10/24 05:41:28;;;;;;;7.73;6.50;;;12.30;99.90;;;;;;5055371;28;20435;-82
2022/10/24 05:43:54;;;;;;;10.37;6.77;;;12.40;99.90;;;;;;5059179;28;20443;-81
2022/10/24 05:46:21;;;;;;;9.80;7.50;;;12.20;99.90;;;;;;5055437;28;20439;-82
2022/10/24 05:48:48;;;;;;;10.07;7.90;;;12.20;99.90;;;;;;5041929;28;20417;-79
2022/10/24 05:51:14;;;;;;;12.43;7.30;;;12.20;99.90;;;;;;5041986;28;20426;-82
2022/10/24 05:53:41;;;;;;;9.03;5.93;;;12.20;99.90;;;;;;5041435;28;20443;-82
2022/10/24 05:56:09;;;;;;;8.30;7.17;;;12.20;99.90;;;;;;5040815;28;20440;-81
2022/10/24 05:58:37;;;;;;;9.70;7.10;;;12.20;99.90;;;;;;5040309;28;20573;-81
2022/10/24 06:01:06;;;;;;;12.87;7.23;;;12.10;99.90;;;;;;5039491;28;20414;-81
2022/10/24 06:03:32;;;;;;;7.70;6.90;;;12.20;99.90;;;;;;5039605;28;20428;-81
2022/10/24 06:06:03;;;;;;;10.47;8.00;;;12.20;99.90;;;;;;5040576;28;20517;-82
2022/10/24 06:08:30;;;;;;;10.60;7.53;;;12.10;99.90;;;;;;5040595;28;20441;-82
2022/10/24 06:10:57;;;;;;;9.20;7.77;;;12.20;99.90;;;;;;5039636;28;20453;-82
2022/10/24 06:13:23;;;;;;;9.57;7.90;;;12.20;99.90;;;;;;5039557;28;20447;-82
2022/10/24 06:15:51;;;;;;;8.47;6.40;;;12.20;99.90;;;;;;5039636;28;20466;-82
2022/10/24 06:18:18;;;;;;;10.77;8.00;;;12.20;99.90;;;;;;5040454;28;20807;-81
2022/10/24 06:20:45;;;;;;;8.77;7.40;;;12.20;99.90;;;;;;5041460;28;20867;-80
2022/10/24 06:23:12;;;;;;;7.97;6.53;;;12.20;99.90;;;;;;5041667;28;20787;-81
2022/10/24 06:25:40;;;;;;;9.30;8.10;;;12.20;99.90;;;;;;5040542;28;20449;-81
2022/10/24 06:28:07;;;;;;;8.67;7.87;;;12.20;99.90;;;;;;5039851;28;20455;-82
2022/10/24 06:30:36;;;;;;;13.60;8.60;;;12.20;99.90;;;;;;5039385;28;20425;-81
2022/10/24 06:33:04;;;;;;;17.63;8.53;;;12.20;99.90;;;;;;5038560;28;20930;-81
2022/10/24 06:35:30;;;;;;;9.20;7.60;;;12.30;99.90;;;;;;5038335;28;20477;-81
2022/10/24 06:37:57;;;;;;;12.93;8.37;;;12.30;99.90;;;;;;5046975;28;20443;-79
2022/10/24 06:40:24;;;;;;;10.53;8.40;;;12.40;99.90;;;;;;5044431;28;20440;-81
2022/10/24 06:42:51;;;;;;;10.27;8.17;;;12.40;99.90;;;;;;5037753;28;20420;-81
2022/10/24 06:45:20;;;;;;;8.70;6.93;;;12.40;99.90;;;;;;5037725;28;20473;-81
2022/10/24 06:47:47;;;;;;;9.77;8.77;;;12.50;99.90;;;;;;5037326;28;20455;-81
2022/10/24 06:50:15;;;;;;;8.77;7.87;;;12.50;99.90;;;;;;5038269;28;20417;-81
2022/10/24 06:52:42;;;;;;;10.77;7.47;;;12.60;99.90;;;;;;5044718;28;20469;-79
2022/10/24 06:55:09;;;;;;;15.23;7.50;;;12.60;99.90;;;;;;5045980;28;20474;-81
2022/10/24 06:57:36;;;;;;;13.10;8.23;;;12.70;99.90;;;;;;5041350;28;20525;-79
2022/10/24 07:00:05;;;;;;;14.07;6.87;;;12.90;99.90;;;;;;5046483;28;20844;-83
2022/10/24 07:02:32;;;;;;;8.10;6.50;;;12.70;99.90;;;;;;5045227;28;20453;-79
2022/10/24 07:04:59;;;;;;;7.90;6.60;;;12.70;99.90;;;;;;5047567;28;20470;-80
2022/10/24 07:07:27;;;;;;;16.03;7.30;;;12.80;99.90;;;;;;5046451;28;20463;-81
2022/10/24 07:09:56;;;;;;;8.13;5.97;;;12.90;99.90;;;;;;5041970;28;20446;-82
2022/10/24 07:12:23;;;;;;;7.90;7.00;;;13.00;99.90;;;;;;5045529;28;20454;-82
2022/10/24 07:14:50;;;;;;;8.27;7.10;;;13.00;99.90;;;;;;5040603;28;20478;-81
2022/10/24 07:17:18;;;;;;;9.27;7.10;;;13.00;99.90;;;;;;5038089;28;20813;-80
2022/10/24 07:19:45;;;;;;;11.50;6.90;;;13.00;99.90;;;;;;5040668;28;20457;-80
2022/10/24 07:22:12;;;;;;;10.33;6.50;;;13.10;99.90;;;;;;5047133;28;20500;-81
2022/10/24 07:24:40;;;;;;;9.27;7.13;;;13.10;99.90;;;;;;5042948;28;20508;-81
2022/10/24 07:27:06;;;;;;;9.90;6.97;;;13.00;99.90;;;;;;5036599;28;20450;-80
2022/10/24 07:29:33;;;;;;;7.00;5.87;;;13.30;99.90;;;;;;5034132;28;20447;-80
2022/10/24 07:32:00;;;;;;;8.77;5.83;;;13.30;99.90;;;;;;5042708;28;20450;-81
2022/10/24 07:34:27;;;;;;;13.50;7.00;;;13.60;99.90;;;;;;5038550;28;20478;-81
2022/10/24 07:36:54;;;;;;;11.33;6.90;;;13.40;99.90;;;;;;5036389;28;20442;-79
2022/10/24 07:39:20;;;;;;;11.07;6.73;;;13.50;99.90;;;;;;5035949;28;20492;-80
2022/10/24 07:41:48;;;;;;;9.20;6.50;;;13.60;99.90;;;;;;5036277;28;20912;-79
2022/10/24 07:44:15;;;;;;;7.50;6.33;;;13.60;99.90;;;;;;5036301;28;20837;-80
2022/10/24 07:46:42;;;;;;;10.60;7.13;;;13.70;99.90;;;;;;5037908;28;20836;-80
2022/10/24 07:49:09;;;;;;;8.70;7.07;;;13.70;99.90;;;;;;5036779;28;20454;-80
2022/10/24 07:51:36;;;;;;;9.40;6.37;;;13.80;99.90;;;;;;5039995;28;20504;-80
2022/10/24 07:54:02;;;;;;;10.23;8.07;;;13.90;99.90;;;;;;5037636;28;20554;-81
2022/10/24 07:56:29;;;;;;;8.30;6.90;;;13.90;99.90;;;;;;5037717;28;20430;-81
2022/10/24 07:58:59;;;;;;;7.27;5.87;;;13.90;99.90;;;;;;5036782;28;20513;-81
2022/10/24 08:01:28;;;;;;;13.00;6.87;;;14.00;99.90;;;;;;5036979;28;20439;-80
2022/10/24 08:03:55;;;;;;;13.00;6.40;;;14.00;99.90;;;;;;5037887;28;20451;-80
2022/10/24 08:06:24;;;;;;;7.70;5.73;;;14.10;99.90;;;;;;5039304;28;20447;-81
2022/10/24 08:08:51;;;;;;;16.23;5.83;;;14.10;99.90;;;;;;5042704;28;20949;-80
2022/10/24 08:11:20;;;;;;;9.33;5.83;;;14.20;99.90;;;;;;5039079;28;20469;-79
2022/10/24 08:13:47;;;;;;;11.33;4.97;;;14.30;99.90;;;;;;5043018;28;20863;-81
2022/10/24 08:16:17;;;;;;;8.60;5.47;;;14.40;99.90;;;;;;5041321;28;20454;-82
2022/10/24 08:18:44;;;;;;;9.70;5.60;;;14.40;99.90;;;;;;5047320;28;20500;-79
2022/10/24 08:21:13;;;;;;;10.70;5.07;;;14.50;99.90;;;;;;5048645;28;20473;-81
2022/10/24 08:23:42;;;;;;;6.37;5.70;;;14.60;99.90;;;;;;5043909;28;20417;-79
2022/10/24 08:26:12;;;;;;;14.23;6.37;;;14.70;99.90;;;;;;5042040;28;20481;-80
2022/10/24 08:28:39;;;;;;;8.10;5.03;;;14.70;99.90;;;;;;5045595;28;20409;-81
2022/10/24 08:31:08;;;;;;;6.40;5.27;;;14.70;99.90;;;;;;5047354;28;20497;-80
2022/10/24 08:33:36;;;;;;;6.23;4.77;;;14.80;99.90;;;;;;5051256;28;20473;-81
2022/10/24 08:36:06;;;;;;;9.67;4.60;;;14.80;99.90;;;;;;5052935;28;20489;-81
2022/10/24 08:38:33;;;;;;;5.13;3.70;;;14.90;99.90;;;;;;5052137;28;20469;-80
2022/10/24 08:41:00;;;;;;;12.60;4.70;;;15.00;99.90;;;;;;5049769;28;20442;-80
2022/10/24 08:43:27;;;;;;;6.10;4.60;;;15.10;99.90;;;;;;5046995;28;20457;-80
2022/10/24 08:46:02;;;;;;;9.10;5.27;;;15.20;99.90;;;;;;5043757;28;20478;-79
2022/10/24 08:48:34;;;;;;;7.60;4.87;;;15.30;99.90;;;;;;5044677;28;20438;-83
2022/10/24 08:51:19;;;;;;;9.20;5.50;;;15.30;99.90;;;;;;5052452;28;20447;-80
2022/10/24 08:53:47;;;;;;;7.53;4.67;;;15.30;99.90;;;;;;5051659;28;20492;-80
2022/10/24 08:56:37;;;;;;;6.13;4.37;;;15.70;99.90;;;;;;5047010;22;20495;-78
2022/10/24 08:59:18;;;;;;;7.47;4.77;;;15.70;99.90;;;;;;5017133;28;20525;-77
2022/10/24 09:02:13;;;;;;;10.57;4.10;;;15.80;99.90;;;;;;5017596;28;20454;-78
2022/10/24 09:04:49;;;;;;;5.93;4.53;;;15.90;99.90;;;;;;5018262;28;20479;-79
2022/10/24 09:07:23;;;;;;;10.13;4.63;;;15.90;99.90;;;;;;5018860;28;20811;-78
2022/10/24 09:15:38;;;;;;;8.80;4.80;;;;;;;;;;5017512;28;20469;-79
2022/10/24 09:18:18;;;;;;;6.97;4.00;;;16.10;99.90;;;;;;5018208;28;20498;-78
2022/10/24 09:20:55;;;;;;;8.60;4.40;;;;;;;;;;5016930;28;20499;-78
2022/10/24 09:29:48;;;;;;;5.10;3.93;;;;;;;;;;5017334;28;20420;-78
2022/10/24 09:32:50;;;;;;;9.97;4.03;;;16.30;99.90;;;;;;5017917;28;20457;-78
2022/10/24 09:39:11;;;;;;;6.80;3.50;;;16.50;99.90;;;;;;4975651;28;20495;-78
2022/10/24 09:42:20;;;;;;;;;;;;;;;;;;;;;
2022/10/24 09:47:49;;;;;;;10.73;4.43;;;;;;;;;;5016069;28;20443;-78
2022/10/24 09:50:41;;;;;;;9.20;4.10;;;;;;;;;;5018327;28;20455;-79
2022/10/24 10:00:27;;;;;;;12.50;3.97;;;16.90;99.90;;;;;;5018371;28;20554;-78
2022/10/24 10:03:31;;;;;;;5.70;3.93;;;17.00;99.90;;;;;;5016376;28;20455;-78
2022/10/24 10:30:22;;;;;;;10.30;4.63;;;17.40;99.90;;;;;;5016762;28;20422;-78
2022/10/24 10:36:51;;;;;;;8.03;3.80;;;17.40;99.90;;;;;;4934277;29;20579;-77
2022/10/24 10:40:09;;;;;;;7.07;3.30;;;17.50;99.90;;;;;;4843854;29;20451;-78
2022/10/24 10:49:46;;;;;;;12.80;4.47;;;17.60;99.90;;;;;;4834841;29;20448;-78
2022/10/24 10:52:53;;;;;;;5.13;3.10;;;17.60;99.90;;;;;;4879216;29;20462;-77
2022/10/24 10:59:44;;;;;;;5.80;3.30;;;17.60;99.90;;;;;;4959163;29;21051;-79
2022/10/24 11:06:00;;;;;;;9.27;3.53;;;17.70;99.90;;;;;;4953164;29;20468;-78
2022/10/24 11:22:50;;;;;;;4.13;3.00;;;17.80;99.90;;;;;;4882044;29;20441;-78
2022/10/24 11:32:43;;;;;;;6.63;3.57;;;17.80;99.90;;;;;;4968373;28;20527;-79
2022/10/24 11:35:36;;;;;;;5.47;3.07;;;17.90;99.90;;;;;;5015951;28;20542;-78
2022/10/24 11:42:11;;;;;;;;;;;;;;;;;;;;;
2022/10/24 11:48:12;;;;;;;7.07;3.70;;;17.90;99.90;;;;;;4973718;28;20907;-77
2022/10/24 11:50:46;;;;;;;4.63;2.70;;;17.90;99.90;;;;;;5014600;28;20921;-78
2022/10/24 11:53:23;;;;;;;10.13;3.50;;;17.90;99.90;;;;;;5015826;28;20779;-78
2022/10/24 11:55:55;;;;;;;5.40;3.60;;;17.90;99.90;;;;;;5014616;28;20482;-78
2022/10/24 11:58:25;;;;;;;8.20;3.50;;;18.00;99.90;;;;;;5014099;28;20447;-78
2022/10/24 12:01:24;;;;;;;5.20;3.60;;;18.40;99.90;;;;;;5015146;28;20871;-78
2022/10/24 12:04:27;;;;;;;9.60;3.73;;;18.10;99.90;;;;;;5015033;28;20439;-78
2022/10/24 12:07:22;;;;;;;6.13;3.00;;;18.00;99.90;;;;;;4990282;28;20439;-78
2022/10/24 12:10:09;;;;;;;13.93;4.80;;;18.10;99.90;;;;;;5014362;28;20424;-78
2022/10/24 12:12:50;;;;;;;6.80;3.40;;;18.20;99.90;;;;;;5015828;28;20861;-78
2022/10/24 12:15:34;;;;;;;12.23;3.17;;;18.10;99.90;;;;;;5014369;28;20467;-79
2022/10/24 12:18:09;;;;;;;7.70;4.27;;;18.10;99.90;;;;;;5014603;28;20432;-78
2022/10/24 12:20:37;;;;;;;7.50;3.30;;;18.30;99.90;;;;;;5014704;28;20989;-78
2022/10/24 12:23:05;;;;;;;5.93;4.00;;;18.20;99.90;;;;;;5015896;28;20462;-78
2022/10/24 12:25:35;;;;;;;9.37;5.00;;;18.20;99.90;;;;;;5018809;28;20562;-78
2022/10/24 12:28:04;;;;;;;23.30;13.87;;;18.20;99.90;;;;;;5019766;28;20447;-79
2022/10/24 12:30:33;;;;;;;16.63;7.80;;;18.20;99.90;;;;;;5021290;28;20435;-79
2022/10/24 12:33:10;;;;;;;9.83;5.53;;;18.20;99.90;;;;;;5020790;28;20447;-78
2022/10/24 12:35:50;;;;;;;10.80;6.40;;;18.10;99.90;;;;;;5018559;28;20463;-79
2022/10/24 12:39:05;;;;;;;4.30;3.20;;;18.10;99.90;;;;;;5020927;28;20502;-79
2022/10/24 12:41:41;;;;;;;6.93;3.50;;;18.00;99.90;;;;;;5018533;28;20495;-79
2022/10/24 12:44:51;;;;;;;7.80;5.30;;;18.40;99.90;;;;;;5016265;28;20443;-78
2022/10/24 12:47:32;;;;;;;6.53;4.40;;;18.10;99.90;;;;;;5015681;28;20474;-78
2022/10/24 12:50:38;;;;;;;7.07;5.03;;;18.20;99.90;;;;;;5013281;28;20495;-79
2022/10/24 12:53:28;;;;;;;8.43;4.83;;;18.20;99.90;;;;;;5014712;28;20832;-79
2022/10/24 12:56:20;;;;;;;10.37;6.13;;;18.20;99.90;;;;;;5015195;28;20888;-78
2022/10/24 12:58:59;;;;;;;13.60;4.60;;;18.30;99.90;;;;;;5015178;28;20478;-78
2022/10/24 13:01:32;;;;;;;15.30;6.73;;;18.30;99.90;;;;;;5015810;28;20467;-80
2022/10/24 13:04:32;;;;;;;12.87;5.57;;;18.30;99.90;;;;;;5016698;28;20518;-78
2022/10/24 13:07:19;;;;;;;19.30;13.30;;;18.40;99.90;;;;;;5016193;28;20436;-78
2022/10/24 13:09:57;;;;;;;11.47;5.30;;;18.40;99.90;;;;;;5015494;28;20534;-79
2022/10/24 13:12:42;;;;;;;23.07;13.93;;;18.30;99.90;;;;;;5015703;28;20427;-78
2022/10/24 13:15:31;;;;;;;11.63;3.83;;;18.30;99.90;;;;;;5016092;28;20467;-78
2022/10/24 13:18:10;;;;;;;6.87;3.80;;;18.30;99.90;;;;;;5014519;28;20466;-78
2022/10/24 13:20:39;;;;;;;10.10;3.80;;;18.20;99.90;;;;;;5018614;28;20541;-79
2022/10/24 13:23:14;;;;;;;22.60;12.47;;;18.20;99.90;;;;;;5018204;28;20470;-78
2022/10/24 13:25:42;;;;;;;11.53;4.50;;;18.60;99.90;;;;;;5017806;28;20441;-79
2022/10/24 13:28:37;;;;;;;14.93;9.20;;;18.20;99.90;;;;;;5018926;28;20823;-79
2022/10/24 13:31:41;;;;;;;7.90;3.60;;;18.20;99.90;;;;;;5018554;28;20436;-78
2022/10/24 13:34:16;;;;;;;5.47;3.17;;;18.60;99.90;;;;;;5019069;28;20482;-78
2022/10/24 13:36:45;;;;;;;7.43;4.73;;;18.30;99.90;;;;;;5019458;28;20435;-78
2022/10/24 13:39:16;;;;;;;6.77;5.77;;;18.30;99.90;;;;;;5024241;28;20494;-78
2022/10/24 13:41:47;;;;;;;23.93;11.27;;;18.30;99.90;;;;;;5023507;28;20471;-79
2022/10/24 13:44:22;;;;;;;9.20;4.90;;;18.30;99.90;;;;;;5022840;28;20436;-78
2022/10/24 13:46:53;;;;;;;11.60;5.43;;;18.30;99.90;;;;;;5020798;28;20486;-78
2022/10/24 13:49:25;;;;;;;18.53;9.80;;;18.30;99.90;;;;;;5024016;28;20436;-79
2022/10/24 13:51:54;;;;;;;8.60;4.33;;;18.20;99.90;;;;;;5023191;28;20903;-78
2022/10/24 13:54:26;;;;;;;8.37;5.87;;;17.80;99.90;;;;;;5016906;28;20448;-77
2022/10/24 13:56:53;;;;;;;8.13;5.33;;;18.10;99.90;;;;;;5016128;28;20441;-79
2022/10/24 13:59:28;;;;;;;6.70;4.17;;;18.10;99.90;;;;;;5016601;28;20882;-79
2022/10/24 14:01:57;;;;;;;10.17;4.20;;;18.10;99.90;;;;;;5019423;28;20860;-79
2022/10/24 14:04:24;;;;;;;12.57;4.97;;;18.00;99.90;;;;;;5020257;28;20446;-79
2022/10/24 14:06:51;;;;;;;9.10;4.80;;;18.00;99.90;;;;;;5022450;28;20446;-79
2022/10/24 14:09:18;;;;;;;13.10;9.37;;;18.00;99.90;;;;;;5028511;28;20451;-81
2022/10/24 14:11:47;;;;;;;11.40;7.60;;;18.20;99.90;;;;;;5029757;28;20459;-82
2022/10/24 14:14:26;;;;;;;11.83;5.10;;;17.80;99.90;;;;;;5025186;28;20451;-81
2022/10/24 14:17:17;;;;;;;10.43;5.30;;;17.90;99.90;;;;;;5032468;28;20432;-81
2022/10/24 14:19:50;;;;;;;13.33;7.43;;;17.60;99.90;;;;;;5033707;28;20428;-81
2022/10/24 14:22:22;;;;;;;11.53;7.03;;;17.90;99.90;;;;;;5031921;28;20495;-82
2022/10/24 14:24:49;;;;;;;8.97;4.50;;;17.90;99.90;;;;;;5032840;28;20475;-82
2022/10/24 14:27:18;;;;;;;8.53;5.20;;;17.90;99.90;;;;;;5028384;28;20451;-82
2022/10/24 14:29:58;;;;;;;9.37;5.47;;;17.80;99.90;;;;;;5023351;28;20451;-81
2022/10/24 14:32:29;;;;;;;6.80;5.60;;;17.90;99.90;;;;;;5022325;28;20458;-81
2022/10/24 14:34:57;;;;;;;10.27;4.63;;;17.90;99.90;;;;;;5022456;28;20479;-82
2022/10/24 14:37:31;;;;;;;9.60;6.53;;;17.90;99.90;;;;;;5021411;28;20451;-80
2022/10/24 14:39:59;;;;;;;10.10;6.77;;;18.00;99.90;;;;;;5022619;28;20422;-83
2022/10/24 14:42:27;;;;;;;6.60;5.90;;;18.00;99.90;;;;;;5021478;28;20506;-84
2022/10/24 14:44:59;;;;;;;13.33;6.00;;;18.00;99.90;;;;;;5021113;28;20427;-80
2022/10/24 14:47:30;;;;;;;10.87;6.60;;;18.20;99.90;;;;;;5021434;28;20463;-82